createdAt,value
2023-03-02T00:02:01.746Z,23.33
2023-03-02T00:04:46.367Z,26.25
2023-03-02T00:07:16.884Z,18.77
2023-03-02T00:09:44.543Z,18.98
2023-03-02T00:12:11.717Z,21.77
2023-03-02T00:14:38.165Z,26.73
2023-03-02T00:17:05.295Z,18.00
2023-03-02T00:19:31.721Z,20.08
2023-03-02T00:21:58.136Z,14.35
2023-03-02T00:24:24.559Z,18.30
2023-03-02T00:26:50.944Z,18.40
2023-03-02T00:29:17.417Z,16.98
2023-03-02T00:31:43.959Z,15.02
2023-03-02T00:34:10.397Z,15.90
2023-03-02T00:36:36.807Z,14.13
2023-03-02T00:39:04.475Z,16.00
2023-03-02T00:41:30.873Z,18.42
2023-03-02T00:43:57.256Z,14.98
2023-03-02T00:46:25.176Z,14.20
2023-03-02T00:48:52.742Z,14.35
2023-03-02T00:51:19.568Z,18.23
2023-03-02T00:53:46.475Z,15.90
2023-03-02T00:56:13.204Z,16.35
2023-03-02T00:58:44.754Z,12.82
2023-03-02T01:01:13.493Z,14.13
2023-03-02T01:03:44.766Z,16.25
2023-03-02T01:06:19.911Z,19.08
2023-03-02T01:08:46.507Z,15.75
2023-03-02T01:11:18.219Z,13.65
2023-03-02T01:13:45.692Z,13.90
2023-03-02T01:16:12.656Z,16.90
2023-03-02T01:18:39.790Z,15.23
2023-03-02T01:21:09.533Z,11.52
2023-03-02T01:23:35.957Z,11.02
2023-03-02T01:26:03.121Z,13.55
2023-03-02T01:28:29.517Z,12.75
2023-03-02T01:30:55.967Z,16.52
2023-03-02T01:33:22.829Z,12.45
2023-03-02T01:35:49.593Z,13.13
2023-03-02T01:38:16.088Z,13.70
2023-03-02T01:40:43.601Z,15.52
2023-03-02T01:43:13.500Z,12.18
2023-03-02T01:45:53.108Z,13.15
2023-03-02T01:48:31.617Z,11.30
2023-03-02T01:50:58.705Z,14.73
2023-03-02T01:53:29.240Z,10.93
2023-03-02T01:55:57.135Z,13.02
2023-03-02T01:58:25.872Z,12.45
2023-03-02T02:00:54.559Z,16.17
2023-03-02T02:03:24.862Z,12.93
2023-03-02T02:06:08.972Z,13.48
2023-03-02T02:08:36.503Z,12.75
2023-03-02T02:11:03.306Z,11.75
2023-03-02T02:13:30.266Z,16.15
2023-03-02T02:15:56.665Z,12.32
2023-03-02T02:18:23.734Z,11.57
2023-03-02T02:20:54.000Z,14.88
2023-03-02T02:23:34.362Z,15.87
2023-03-02T02:26:29.210Z,14.70
2023-03-02T02:29:00.502Z,15.85
2023-03-02T02:31:35.241Z,16.17
2023-03-02T02:34:13.816Z,16.40
2023-03-02T02:36:43.439Z,14.35
2023-03-02T02:39:21.238Z,19.85
2023-03-02T02:41:50.852Z,15.30
2023-03-02T02:44:19.187Z,17.38
2023-03-02T02:46:45.861Z,14.82
2023-03-02T02:49:29.033Z,18.45
2023-03-02T02:51:55.469Z,12.80
2023-03-02T02:54:23.005Z,13.40
2023-03-02T02:56:50.984Z,12.30
2023-03-02T02:59:22.645Z,15.20
2023-03-02T03:01:50.688Z,17.50
2023-03-02T03:04:24.341Z,13.93
2023-03-02T03:06:56.631Z,14.02
2023-03-02T03:09:23.941Z,15.38
2023-03-02T03:11:52.759Z,16.10
2023-03-02T03:14:22.450Z,16.48
2023-03-02T03:16:51.781Z,16.65
2023-03-02T03:19:24.170Z,15.25
2023-03-02T03:21:55.200Z,14.65
2023-03-02T03:24:25.090Z,15.63
2023-03-02T03:26:54.167Z,14.10
2023-03-02T03:29:24.079Z,12.55
2023-03-02T03:31:53.359Z,14.10
2023-03-02T03:34:21.237Z,16.35
2023-03-02T03:36:47.962Z,16.38
2023-03-02T03:39:16.152Z,16.27
2023-03-02T03:41:43.511Z,21.00
2023-03-02T03:44:11.267Z,18.73
2023-03-02T03:46:40.229Z,18.33
2023-03-02T03:49:06.807Z,14.55
2023-03-02T03:51:35.296Z,15.50
2023-03-02T03:54:05.305Z,17.85
2023-03-02T03:56:39.165Z,17.30
2023-03-02T03:59:08.051Z,17.48
2023-03-02T04:01:47.177Z,19.63
2023-03-02T04:04:24.531Z,20.30
2023-03-02T04:06:51.527Z,15.32
2023-03-02T04:09:19.179Z,17.05
2023-03-02T04:11:48.860Z,13.77
2023-03-02T04:14:16.909Z,16.60
2023-03-02T04:16:44.385Z,16.02
2023-03-02T04:19:12.825Z,19.40
2023-03-02T04:21:45.005Z,15.33
2023-03-02T04:24:13.261Z,20.02
2023-03-02T04:26:42.044Z,16.90
2023-03-02T04:29:10.259Z,17.48
2023-03-02T04:31:38.467Z,23.10
2023-03-02T04:34:05.863Z,16.75
2023-03-02T04:36:35.671Z,14.13
2023-03-02T04:39:05.318Z,19.98
2023-03-02T04:41:32.568Z,22.67
2023-03-02T04:43:59.088Z,20.55
2023-03-02T04:46:27.112Z,20.13
2023-03-02T04:48:54.328Z,18.77
2023-03-02T04:51:25.081Z,18.77
2023-03-02T04:53:57.731Z,21.90
2023-03-02T04:56:24.280Z,17.15
2023-03-02T04:58:50.769Z,21.38
2023-03-02T05:01:18.658Z,19.58
2023-03-02T05:03:45.872Z,23.27
2023-03-02T05:06:12.725Z,20.80
2023-03-02T05:08:39.763Z,19.35
2023-03-02T05:11:07.828Z,22.80
2023-03-02T05:13:35.277Z,19.55
2023-03-02T05:16:01.815Z,21.25
2023-03-02T05:18:28.289Z,19.65
2023-03-02T05:20:55.254Z,22.40
2023-03-02T05:23:27.045Z,16.80
2023-03-02T05:25:55.679Z,18.10
2023-03-02T05:28:24.552Z,18.98
2023-03-02T05:30:51.562Z,20.40
2023-03-02T05:33:19.157Z,22.23
2023-03-02T05:35:46.142Z,23.17
2023-03-02T05:38:13.212Z,19.25
2023-03-02T05:40:40.277Z,20.85
2023-03-02T05:43:07.293Z,19.33
2023-03-02T05:45:37.172Z,24.60
2023-03-02T05:48:04.775Z,23.27
2023-03-02T05:50:31.892Z,27.98
2023-03-02T05:53:00.119Z,20.27
2023-03-02T05:55:26.624Z,26.10
2023-03-02T05:57:53.167Z,21.25
2023-03-02T06:00:20.641Z,24.77
2023-03-02T06:02:47.645Z,21.00
2023-03-02T06:05:17.026Z,25.38
2023-03-02T06:07:44.319Z,24.25
2023-03-02T06:10:12.503Z,24.08
2023-03-02T06:12:39.251Z,28.48
2023-03-02T06:15:07.188Z,25.85
2023-03-02T06:17:46.024Z,30.63
2023-03-02T06:20:13.213Z,30.60
2023-03-02T06:22:42.055Z,27.95
2023-03-02T06:25:10.352Z,27.67
2023-03-02T06:27:38.877Z,27.95
2023-03-02T06:30:08.762Z,36.25
2023-03-02T06:32:35.547Z,33.03
2023-03-02T06:35:03.184Z,37.63
2023-03-02T06:37:30.062Z,42.95
2023-03-02T06:39:57.423Z,39.83
2023-03-02T06:42:25.118Z,45.90
2023-03-02T06:44:51.785Z,55.25
2023-03-02T06:47:18.698Z,57.33
2023-03-02T06:49:45.133Z,51.00
2023-03-02T06:52:13.518Z,52.92
2023-03-02T06:54:40.549Z,55.30
2023-03-02T06:57:07.529Z,59.92
2023-03-02T06:59:34.780Z,67.43
2023-03-02T07:02:01.352Z,66.30
2023-03-02T07:04:30.444Z,64.30
2023-03-02T07:06:57.072Z,65.22
2023-03-02T07:09:23.582Z,57.42
2023-03-02T07:11:49.977Z,61.00
2023-03-02T07:14:16.353Z,79.65
2023-03-02T07:16:42.800Z,65.50
2023-03-02T07:19:13.891Z,57.28
2023-03-02T07:24:07.483Z,60.85
2023-03-02T07:26:33.956Z,69.22
2023-03-02T07:29:00.905Z,67.47
2023-03-02T07:31:27.890Z,64.18
2023-03-02T07:33:54.411Z,68.38
2023-03-02T07:36:21.008Z,71.47
2023-03-02T07:38:48.555Z,96.50
2023-03-02T07:41:16.683Z,77.70
2023-03-02T07:43:43.349Z,74.22
2023-03-02T07:46:09.785Z,70.75
2023-03-02T07:48:36.213Z,78.63
2023-03-02T07:51:05.031Z,80.38
2023-03-02T07:53:31.551Z,71.57
2023-03-02T07:55:58.100Z,80.22
2023-03-02T07:58:24.531Z,81.65
2023-03-02T08:00:51.082Z,74.05
2023-03-02T08:03:17.513Z,73.88
2023-03-02T08:05:43.915Z,78.95
2023-03-02T08:08:10.340Z,85.35
2023-03-02T08:10:37.050Z,80.85
2023-03-02T08:13:03.870Z,74.22
2023-03-02T08:15:30.323Z,81.63
2023-03-02T08:17:56.728Z,105.68
2023-03-02T08:20:23.265Z,73.25
2023-03-02T08:22:50.105Z,78.30
2023-03-02T08:25:16.540Z,144.18
2023-03-02T08:27:44.132Z,94.63
2023-03-02T08:30:10.991Z,106.00
2023-03-02T08:32:37.462Z,117.82
2023-03-02T08:35:04.785Z,83.38
2023-03-02T08:37:31.440Z,87.47
2023-03-02T08:39:58.886Z,93.55
2023-03-02T08:42:25.364Z,77.40
2023-03-02T08:44:51.760Z,81.93
2023-03-02T08:47:18.155Z,79.60
2023-03-02T08:49:45.569Z,86.47
2023-03-02T08:52:15.203Z,84.25
2023-03-02T08:54:41.644Z,87.10
2023-03-02T08:57:11.530Z,83.43
2023-03-02T08:59:37.969Z,89.70
2023-03-02T09:02:04.352Z,83.82
2023-03-02T09:04:30.846Z,86.20
2023-03-02T09:06:57.272Z,79.85
2023-03-02T09:09:23.695Z,87.15
2023-03-02T09:11:50.123Z,85.53
2023-03-02T09:14:16.659Z,77.65
2023-03-02T09:16:43.173Z,75.15
2023-03-02T09:19:11.594Z,80.38
2023-03-02T09:21:37.990Z,80.68
2023-03-02T09:24:04.647Z,88.38
2023-03-02T09:26:31.065Z,92.45
2023-03-02T09:28:57.618Z,87.30
2023-03-02T09:31:24.071Z,89.10
2023-03-02T09:33:50.503Z,84.05
2023-03-02T09:36:22.944Z,79.10
2023-03-02T09:38:49.600Z,76.68
2023-03-02T09:41:18.721Z,84.03
2023-03-02T09:44:03.296Z,84.05
2023-03-02T09:46:54.307Z,88.63
2023-03-02T09:49:55.478Z,95.55
2023-03-02T09:52:31.589Z,83.95
2023-03-02T09:55:06.819Z,85.93
2023-03-02T09:57:38.463Z,91.93
2023-03-02T10:00:19.553Z,80.50
2023-03-02T10:02:48.319Z,89.63
2023-03-02T10:05:22.867Z,83.97
2023-03-02T10:07:49.628Z,81.82
2023-03-02T10:10:29.169Z,82.28
2023-03-02T10:13:25.058Z,81.72
2023-03-02T10:16:03.353Z,87.80
2023-03-02T10:18:43.768Z,82.55
2023-03-02T10:21:25.213Z,82.60
2023-03-02T10:26:42.844Z,83.50
2023-03-02T10:29:43.076Z,86.78
2023-03-02T10:32:22.710Z,96.50
2023-03-02T10:34:53.446Z,97.80
2023-03-02T10:37:25.046Z,94.03
2023-03-02T10:39:52.742Z,95.15
2023-03-02T10:42:37.577Z,94.82
2023-03-02T10:45:27.695Z,86.35
2023-03-02T10:48:01.174Z,85.78
2023-03-02T10:50:27.562Z,88.90
2023-03-02T10:53:00.138Z,85.03
2023-03-02T10:55:27.438Z,84.43
2023-03-02T10:58:06.994Z,74.95
2023-03-02T11:00:34.862Z,78.60
2023-03-02T11:03:05.801Z,83.18
2023-03-02T11:05:37.848Z,73.70
2023-03-02T11:08:09.281Z,69.55
2023-03-02T11:10:55.764Z,72.20
2023-03-02T11:13:36.928Z,73.72
2023-03-02T11:16:21.740Z,66.18
2023-03-02T11:19:13.682Z,65.25
2023-03-02T11:21:47.423Z,64.32
2023-03-02T11:24:40.170Z,60.60
2023-03-02T11:27:13.547Z,63.13
2023-03-02T11:29:58.686Z,61.30
2023-03-02T11:32:34.547Z,62.78
2023-03-02T11:35:12.217Z,57.42
2023-03-02T11:37:52.180Z,53.58
2023-03-02T11:40:23.700Z,55.90
2023-03-02T11:42:51.202Z,53.47
2023-03-02T11:45:22.460Z,51.28
2023-03-02T11:48:02.627Z,50.08
2023-03-02T11:50:34.381Z,57.03
2023-03-02T11:53:06.172Z,54.10
2023-03-02T11:55:39.847Z,51.13
2023-03-02T11:58:07.341Z,49.10
2023-03-02T12:00:37.278Z,49.45
2023-03-02T12:03:20.756Z,48.35
2023-03-02T12:06:05.328Z,53.17
2023-03-02T12:08:37.922Z,46.55
2023-03-02T12:11:18.487Z,47.70
2023-03-02T12:13:54.267Z,50.15
2023-03-02T12:16:42.059Z,54.10
2023-03-02T12:19:41.390Z,51.22
2023-03-02T12:22:12.219Z,52.50
2023-03-02T12:24:41.873Z,50.17
2023-03-02T12:27:20.739Z,51.55
2023-03-02T12:29:51.451Z,47.08
2023-03-02T12:32:20.948Z,49.17
2023-03-02T12:34:54.962Z,46.95
2023-03-02T12:37:46.994Z,48.83
2023-03-02T12:40:33.795Z,48.13
2023-03-02T12:43:24.690Z,49.42
2023-03-02T12:46:13.617Z,52.20
2023-03-02T12:49:03.346Z,44.10
2023-03-02T12:51:43.216Z,44.95
2023-03-02T12:54:16.452Z,47.25
2023-03-02T12:56:43.562Z,41.08
2023-03-02T12:59:25.740Z,41.45
2023-03-02T13:01:52.286Z,39.88
2023-03-02T13:04:24.198Z,37.97
2023-03-02T13:06:51.186Z,47.20
2023-03-02T13:09:20.249Z,41.67
2023-03-02T13:11:48.848Z,41.33
2023-03-02T13:14:21.134Z,38.00
2023-03-02T13:17:25.024Z,36.20
2023-03-02T13:19:52.621Z,38.15
2023-03-02T13:22:20.550Z,38.20
2023-03-02T13:24:51.672Z,36.65
2023-03-02T13:29:49.664Z,30.05
2023-03-02T13:32:17.973Z,39.35
2023-03-02T13:34:53.555Z,38.33
2023-03-02T13:37:33.878Z,41.90
2023-03-02T13:40:07.244Z,47.70
2023-03-02T13:42:40.080Z,41.28
2023-03-02T13:45:22.381Z,41.85
2023-03-02T13:47:48.837Z,37.92
2023-03-02T13:50:20.583Z,39.47
2023-03-02T13:52:48.106Z,38.30
2023-03-02T13:55:17.369Z,39.50
2023-03-02T13:57:45.883Z,44.30
2023-03-02T14:00:22.046Z,39.72
2023-03-02T14:02:50.394Z,38.28
2023-03-02T14:05:19.113Z,36.83
2023-03-02T14:07:46.443Z,37.30
2023-03-02T14:10:17.779Z,37.38
2023-03-02T14:12:54.143Z,35.60
2023-03-02T14:15:20.710Z,34.97
2023-03-02T14:17:49.122Z,37.42
2023-03-02T14:20:19.243Z,36.03
2023-03-02T14:22:46.688Z,31.53
2023-03-02T14:25:13.683Z,32.60
2023-03-02T14:27:41.301Z,32.42
2023-03-02T14:30:19.951Z,32.35
2023-03-02T14:32:46.678Z,29.52
2023-03-02T14:35:16.465Z,31.55
2023-03-02T14:37:46.960Z,28.98
2023-03-02T14:40:20.956Z,30.88
2023-03-02T14:42:48.454Z,28.17
2023-03-02T14:45:14.849Z,30.00
2023-03-02T14:47:41.241Z,30.77
2023-03-02T14:50:09.090Z,28.30
2023-03-02T14:52:39.965Z,26.52
2023-03-02T14:55:23.633Z,25.70
2023-03-02T14:57:54.633Z,22.17
2023-03-02T15:00:21.618Z,23.15
2023-03-02T15:02:48.333Z,23.85
2023-03-02T15:05:14.965Z,24.40
2023-03-02T15:07:41.442Z,23.90
2023-03-02T15:10:12.450Z,24.77
2023-03-02T15:15:05.473Z,22.08
2023-03-02T15:17:31.935Z,23.05
2023-03-02T15:19:58.323Z,26.60
2023-03-02T15:22:24.889Z,22.88
2023-03-02T15:24:51.320Z,24.52
2023-03-02T15:27:18.530Z,23.25
2023-03-02T15:29:46.229Z,23.65
2023-03-02T15:32:13.371Z,25.65
2023-03-02T15:34:40.169Z,25.20
2023-03-02T15:37:06.866Z,25.90
2023-03-02T15:39:34.003Z,26.33
2023-03-02T15:42:01.088Z,25.83
2023-03-02T15:44:29.578Z,28.55
2023-03-02T15:46:58.382Z,28.92
2023-03-02T15:49:27.958Z,24.13
2023-03-02T15:51:57.593Z,28.20
2023-03-02T15:54:28.005Z,29.98
2023-03-02T15:56:54.505Z,24.60
2023-03-02T15:59:26.533Z,25.83
2023-03-02T16:01:53.560Z,28.65
2023-03-02T16:04:20.282Z,27.00
2023-03-02T16:06:46.700Z,28.85
2023-03-02T16:09:13.131Z,29.00
2023-03-02T16:11:39.580Z,27.17
2023-03-02T16:14:06.072Z,28.02
2023-03-02T16:16:32.930Z,30.45
2023-03-02T16:18:59.459Z,28.15
2023-03-02T16:21:28.328Z,29.95
2023-03-02T16:23:56.323Z,32.70
2023-03-02T16:26:22.892Z,28.05
2023-03-02T16:28:49.324Z,32.22
2023-03-02T16:31:18.739Z,37.65
2023-03-02T16:33:46.129Z,30.35
2023-03-02T16:36:14.346Z,35.10
2023-03-02T16:38:41.444Z,30.35
2023-03-02T16:41:14.346Z,29.30
2023-03-02T16:43:46.980Z,32.63
2023-03-02T16:46:13.673Z,31.15
2023-03-02T16:48:40.233Z,33.03
2023-03-02T16:51:06.739Z,31.60
2023-03-02T16:53:33.400Z,30.83
2023-03-02T16:55:59.922Z,29.20
2023-03-02T16:58:26.404Z,29.77
2023-03-02T17:00:53.130Z,32.83
2023-03-02T17:03:19.686Z,33.25
2023-03-02T17:05:46.134Z,37.80
2023-03-02T17:08:14.382Z,35.97
2023-03-02T17:10:41.703Z,36.33
2023-03-02T17:13:08.340Z,33.92
2023-03-02T17:15:34.851Z,33.92
2023-03-02T17:18:01.309Z,31.02
2023-03-02T17:20:27.827Z,33.67
2023-03-02T17:22:54.637Z,36.38
2023-03-02T17:25:21.727Z,35.33
2023-03-02T17:27:48.108Z,34.67
2023-03-02T17:30:15.661Z,36.40
2023-03-02T17:32:42.278Z,37.38
2023-03-02T17:35:11.281Z,37.30
2023-03-02T17:37:38.098Z,36.25
2023-03-02T17:40:06.614Z,38.17
2023-03-02T17:42:33.113Z,37.90
2023-03-02T17:44:59.515Z,34.33
2023-03-02T17:47:26.077Z,39.47
2023-03-02T17:49:52.488Z,34.25
2023-03-02T17:52:19.280Z,28.98
2023-03-02T17:54:46.092Z,29.77
2023-03-02T17:57:13.336Z,30.60
2023-03-02T17:59:39.731Z,32.60
2023-03-02T18:02:06.128Z,33.90
2023-03-02T18:04:32.562Z,29.83
2023-03-02T18:06:59.018Z,28.38
2023-03-02T18:09:25.432Z,31.83
2023-03-02T18:11:52.033Z,28.65
2023-03-02T18:14:20.273Z,31.40
2023-03-02T18:16:47.875Z,31.52
2023-03-02T18:19:14.417Z,29.63
2023-03-02T18:21:41.763Z,26.95
2023-03-02T18:24:09.352Z,28.02
2023-03-02T18:26:35.797Z,29.83
2023-03-02T18:29:02.324Z,26.00
2023-03-02T18:31:28.992Z,29.20
2023-03-02T18:33:55.449Z,25.75
2023-03-02T18:36:21.897Z,33.03
2023-03-02T18:38:48.329Z,28.70
2023-03-02T18:41:17.385Z,28.73
2023-03-02T18:43:43.889Z,27.73
2023-03-02T18:46:25.482Z,25.55
2023-03-02T18:48:52.907Z,27.50
2023-03-02T18:51:20.872Z,26.85
2023-03-02T18:53:47.768Z,29.27
2023-03-02T18:56:14.585Z,30.58
2023-03-02T18:58:41.682Z,23.80
2023-03-02T19:01:09.064Z,28.77
2023-03-02T19:03:37.025Z,28.90
2023-03-02T19:06:04.085Z,29.30
2023-03-02T19:08:30.758Z,26.85
2023-03-02T19:10:57.243Z,41.58
2023-03-02T19:13:23.931Z,36.00
2023-03-02T19:15:54.150Z,51.88
2023-03-02T19:18:23.431Z,30.33
2023-03-02T19:20:51.472Z,32.65
2023-03-02T19:23:18.025Z,33.92
2023-03-02T19:25:45.805Z,36.25
2023-03-02T19:28:12.550Z,53.20
2023-03-02T19:30:40.086Z,33.83
2023-03-02T19:33:07.330Z,36.03
2023-03-02T19:35:34.123Z,28.83
2023-03-02T19:38:01.189Z,33.15
2023-03-02T19:40:30.200Z,49.60
2023-03-02T19:42:57.165Z,32.70
2023-03-02T19:45:28.569Z,31.73
2023-03-02T19:47:59.513Z,37.03
2023-03-02T19:50:27.032Z,37.13
2023-03-02T19:52:55.053Z,32.70
2023-03-02T19:55:22.430Z,29.77
2023-03-02T19:57:56.517Z,37.72
2023-03-02T20:00:23.834Z,38.08
2023-03-02T20:02:50.294Z,44.50
2023-03-02T20:05:17.295Z,31.98
2023-03-02T20:07:44.137Z,32.47
2023-03-02T20:10:11.410Z,36.80
2023-03-02T20:12:37.844Z,33.17
2023-03-02T20:15:06.001Z,29.73
2023-03-02T20:17:32.496Z,38.83
2023-03-02T20:20:01.156Z,32.47
2023-03-02T20:22:27.616Z,27.90
2023-03-02T20:24:54.042Z,33.95
2023-03-02T20:27:21.202Z,29.02
2023-03-02T20:29:48.212Z,33.55
2023-03-02T20:32:16.187Z,27.40
2023-03-02T20:34:43.345Z,28.48
2023-03-02T20:37:13.633Z,29.73
2023-03-02T20:39:42.207Z,33.27
2023-03-02T20:42:09.262Z,30.88
2023-03-02T20:44:36.055Z,37.22
2023-03-02T20:47:08.210Z,26.92
2023-03-02T20:49:35.763Z,25.33
2023-03-02T20:52:02.843Z,30.23
2023-03-02T20:54:34.422Z,26.25
2023-03-02T20:57:01.023Z,22.30
2023-03-02T20:59:28.451Z,23.45
2023-03-02T21:01:54.858Z,23.58
2023-03-02T21:04:21.554Z,26.75
2023-03-02T21:06:48.178Z,26.20
2023-03-02T21:09:15.055Z,28.75
2023-03-02T21:11:41.486Z,20.92
2023-03-02T21:14:08.268Z,35.72
2023-03-02T21:16:37.964Z,22.77
2023-03-02T21:19:08.598Z,29.10
2023-03-02T21:21:41.317Z,28.85
2023-03-02T21:24:09.898Z,20.02
2023-03-02T21:26:36.853Z,24.63
2023-03-02T21:29:05.184Z,25.98
2023-03-02T21:31:31.730Z,23.90
2023-03-02T21:33:58.233Z,26.48
2023-03-02T21:36:26.558Z,22.63
2023-03-02T21:38:53.065Z,30.52
2023-03-02T21:41:20.089Z,25.48
2023-03-02T21:43:47.677Z,27.77
2023-03-02T21:46:16.752Z,26.45
2023-03-02T21:48:43.683Z,25.60
2023-03-02T21:51:12.262Z,22.98
2023-03-02T21:53:38.721Z,28.02
2023-03-02T21:56:05.944Z,25.63
2023-03-02T21:58:32.429Z,23.90
2023-03-02T22:00:58.840Z,26.10
2023-03-02T22:03:25.327Z,33.20
2023-03-02T22:05:51.920Z,23.33
2023-03-02T22:08:20.694Z,31.17
2023-03-02T22:10:51.273Z,33.03
2023-03-02T22:13:26.693Z,25.48
2023-03-02T22:16:13.495Z,26.25
2023-03-02T22:18:40.549Z,25.83
2023-03-02T22:21:29.879Z,28.27
2023-03-02T22:24:10.503Z,28.70
2023-03-02T22:26:56.909Z,32.05
2023-03-02T22:29:26.410Z,32.55
2023-03-02T22:31:55.663Z,32.25
2023-03-02T22:34:28.967Z,27.00
2023-03-02T22:36:58.777Z,25.38
2023-03-02T22:39:31.564Z,27.05
2023-03-02T22:42:01.610Z,27.48
2023-03-02T22:44:28.073Z,28.70
2023-03-02T22:46:56.579Z,28.58
2023-03-02T22:49:23.092Z,26.92
2023-03-02T22:51:49.510Z,35.45
2023-03-02T22:54:24.275Z,28.42
2023-03-02T22:56:52.700Z,34.08
2023-03-02T22:59:24.288Z,29.73
2023-03-02T23:01:52.773Z,25.65
2023-03-02T23:04:20.606Z,27.67
2023-03-02T23:06:54.157Z,28.50
2023-03-02T23:09:32.319Z,33.63
2023-03-02T23:12:01.918Z,28.80
2023-03-02T23:14:49.857Z,46.83
2023-03-02T23:17:23.861Z,32.88
2023-03-02T23:19:51.328Z,31.27
2023-03-02T23:22:18.218Z,32.45
2023-03-02T23:24:44.930Z,30.77
2023-03-02T23:27:11.628Z,32.58
2023-03-02T23:29:38.257Z,41.90
2023-03-02T23:32:04.855Z,33.00
2023-03-02T23:34:31.372Z,37.22
2023-03-02T23:36:58.655Z,33.47
2023-03-02T23:39:25.935Z,34.10
2023-03-02T23:41:52.949Z,30.92
2023-03-02T23:44:19.505Z,31.30
2023-03-02T23:46:47.343Z,31.88
2023-03-02T23:49:14.126Z,34.03
2023-03-02T23:51:40.872Z,32.65
2023-03-02T23:54:07.903Z,31.15
2023-03-02T23:56:34.319Z,32.05
2023-03-02T23:59:02.141Z,30.88
